Iver Agile — IBHW — position and weather

sailwx.info

Track history (hours):
 
Tides and Currents Weather Stations Pressure Air Temp Water Temp Dewpoint Dewpoint Depression Visibility Wind Speed Wind Dir Waves Ship Positions

Iver Agile

Last reported at 2015-Jan-31 19:23 UTC. Time now 2015-Jan-31 22:40 UTC.
Position N 43°35' E 010°19'.

Length 110 m; draft 6.7 m.

Type: Tanker. MMSI: 247103700.

Date/timePositionNaut miles runAvg speedWind from/ knotsBaromVisibWave heightAir tempDewpointWater temp
2015-Jan-31 19:23N 43°35' E 010°19'0 0.0
2015-Jan-31 18:32N 43°35' E 010°19'0 0.0
2015-Jan-31 17:32N 43°35' E 010°19'0 0.0
2015-Jan-31 16:29N 43°35' E 010°19'0 0.0
2015-Jan-31 15:32N 43°35' E 010°19'0 0.0
2015-Jan-31 14:29N 43°35' E 010°19'0 0.0
2015-Jan-31 13:29N 43°35' E 010°19'0 0.0
2015-Jan-31 12:31N 43°35' E 010°19'0 0.0
2015-Jan-31 11:32N 43°35' E 010°19'0 0.0
2015-Jan-31 10:29N 43°35' E 010°19'0 0.0
2015-Jan-31 09:32N 43°35' E 010°19'0 0.0
2015-Jan-31 08:32N 43°35' E 010°19'0 0.0
2015-Jan-31 07:28N 43°35' E 010°19'0 0.0
2015-Jan-31 06:31N 43°35' E 010°19'0 0.0
2015-Jan-31 05:32N 43°35' E 010°19'0 0.0
2015-Jan-31 04:32N 43°35' E 010°19'0 0.0
2015-Jan-31 03:29N 43°35' E 010°19'0 0.0
2015-Jan-31 02:32N 43°35' E 010°19'0 0.0
2015-Jan-31 01:32N 43°35' E 010°19'0 0.0
2015-Jan-31 00:32N 43°35' E 010°19'0 0.0
2015-Jan-30 23:32N 43°35' E 010°19'0 0.0
2015-Jan-30 22:29N 43°35' E 010°19'0 0.0
2015-Jan-30 21:32N 43°35' E 010°19'0 0.0
2015-Jan-30 20:29N 43°35' E 010°19'0 0.0
2015-Jan-30 19:29N 43°35' E 010°19'0 0.0
2015-Jan-30 18:29N 43°35' E 010°19'0 0.0
2015-Jan-30 17:32N 43°35' E 010°19'0 0.0
2015-Jan-30 16:32N 43°35' E 010°19'0 0.0
2015-Jan-30 15:29N 43°35' E 010°19'0 0.0
2015-Jan-30 14:28N 43°35' E 010°19'0 0.0
2015-Jan-30 13:29N 43°35' E 010°19'0 0.0
2015-Jan-30 12:29N 43°35' E 010°19'0 0.0
2015-Jan-30 11:29N 43°35' E 010°19'0 0.0
2015-Jan-30 10:29N 43°35' E 010°19'0 0.3
2015-Jan-30 09:33N 43°35' E 010°19'7 7.2
2015-Jan-30 08:33N 43°29' E 010°14'20 2.9
2015-Jan-30 01:33N 43°14' E 009°54'5 4.9
2015-Jan-30 00:33N 43°17' E 009°60'5 4.6
2015-Jan-29 23:33N 43°21' E 010°04'4 4.4
2015-Jan-29 22:33N 43°23' E 010°09'4 4.3
2015-Jan-29 21:33N 43°26' E 010°13'4 3.8
2015-Jan-29 20:33N 43°29' E 010°16'2 1.5
2015-Jan-29 19:26N 43°31' E 010°17'0 0.0
2015-Jan-29 18:32N 43°31' E 010°17'0 0.0
2015-Jan-29 17:32N 43°31' E 010°17'0 0.0
2015-Jan-29 16:32N 43°31' E 010°17'0 0.0
2015-Jan-29 15:32N 43°31' E 010°17'0 0.0
2015-Jan-29 14:32N 43°31' E 010°17'0 0.0
2015-Jan-29 13:32N 43°31' E 010°17'0 0.0
2015-Jan-29 12:32N 43°31' E 010°17'0 0.0
2015-Jan-29 11:32N 43°31' E 010°17'0 0.1
2015-Jan-29 10:32N 43°31' E 010°17'0 0.0
2015-Jan-29 09:32N 43°31' E 010°17'0 0.0
2015-Jan-29 08:32N 43°31' E 010°17'0 0.0
2015-Jan-29 07:32N 43°31' E 010°17'0 0.1
2015-Jan-29 06:29N 43°31' E 010°17'0 0.0
2015-Jan-29 05:32N 43°31' E 010°17'0 0.1
2015-Jan-29 04:32N 43°31' E 010°17'0 0.0
2015-Jan-29 03:32N 43°31' E 010°17'0 0.0
2015-Jan-29 02:32N 43°31' E 010°17'0 0.1
2015-Jan-29 01:29N 43°31' E 010°17'0 0.0
2015-Jan-29 00:32N 43°31' E 010°17'0 0.0
2015-Jan-28 23:29N 43°31' E 010°17'0 0.0
2015-Jan-28 22:32N 43°31' E 010°17'0 0.0
2015-Jan-28 21:32N 43°31' E 010°17'0 0.0
2015-Jan-28 20:29N 43°31' E 010°17'0 0.0
2015-Jan-28 19:32N 43°31' E 010°17'0 0.0
2015-Jan-28 18:29N 43°31' E 010°17'0 0.1
2015-Jan-28 17:29N 43°31' E 010°17'0 0.1
2015-Jan-28 16:32N 43°31' E 010°17'0 0.0
2015-Jan-28 15:32N 43°31' E 010°17'0 0.0
2015-Jan-28 14:32N 43°31' E 010°17'0 0.0
2015-Jan-28 13:32N 43°31' E 010°17'0 0.0
2015-Jan-28 12:32N 43°31' E 010°17'0 0.0
2015-Jan-28 11:32N 43°31' E 010°17'0 0.0
2015-Jan-28 10:32N 43°31' E 010°17'0 0.0
2015-Jan-28 09:32N 43°31' E 010°17'0 0.0
2015-Jan-28 08:32N 43°31' E 010°17'0 0.0
2015-Jan-28 07:32N 43°31' E 010°17'0 0.0
2015-Jan-28 06:32N 43°31' E 010°17'0 0.0
2015-Jan-28 05:29N 43°31' E 010°17'0 0.0
2015-Jan-28 04:32N 43°31' E 010°17'0 0.0
2015-Jan-28 03:26N 43°31' E 010°17'0 0.0
2015-Jan-28 02:32N 43°31' E 010°17'0 0.0
2015-Jan-28 01:32N 43°31' E 010°17'0 0.0
2015-Jan-28 00:32N 43°31' E 010°17'0 0.0
2015-Jan-27 23:32N 43°31' E 010°17'0 0.0
2015-Jan-27 22:32N 43°31' E 010°17'0 0.0
2015-Jan-27 21:32N 43°31' E 010°17'0 0.0
2015-Jan-27 20:29N 43°31' E 010°17'0 0.0
2015-Jan-27 19:32N 43°31' E 010°17'0 0.0
2015-Jan-27 18:32N 43°31' E 010°17'0 0.0
2015-Jan-27 17:32N 43°31' E 010°17'0 0.0
2015-Jan-27 16:32N 43°31' E 010°17'0 0.1
2015-Jan-27 15:32N 43°31' E 010°17'0 0.0
2015-Jan-27 14:32N 43°31' E 010°17'0 0.0
2015-Jan-27 13:32N 43°31' E 010°17'0 0.0
2015-Jan-27 12:32N 43°31' E 010°17'0 0.0
2015-Jan-27 11:32N 43°31' E 010°17'0 0.1
2015-Jan-27 10:32N 43°31' E 010°17'0 0.1
2015-Jan-27 09:32N 43°31' E 010°17'0 0.0
2015-Jan-27 08:32N 43°31' E 010°17'0 0.0
2015-Jan-27 07:32N 43°31' E 010°17'0 0.0
2015-Jan-27 06:32N 43°31' E 010°17'0 0.0
2015-Jan-27 05:32N 43°31' E 010°17'0 0.0
2015-Jan-27 04:32N 43°31' E 010°17'0 0.0
2015-Jan-27 03:32N 43°31' E 010°17'0 0.0
2015-Jan-27 02:32N 43°31' E 010°17'0 0.0
2015-Jan-27 01:32N 43°31' E 010°17'0 0.0
2015-Jan-27 00:32N 43°31' E 010°17'0 0.0
2015-Jan-26 23:32N 43°31' E 010°17'0 0.0
2015-Jan-26 22:32N 43°31' E 010°17'0 0.0
2015-Jan-26 21:32N 43°31' E 010°17'0 0.0
2015-Jan-26 20:32N 43°31' E 010°17'0 0.0
2015-Jan-26 19:32N 43°31' E 010°17'0 0.0
2015-Jan-26 18:32N 43°31' E 010°17'0 0.0
2015-Jan-26 17:32N 43°31' E 010°17'0 0.0
2015-Jan-26 16:32N 43°31' E 010°17'0 0.0
2015-Jan-26 15:32N 43°31' E 010°17'0 0.1
2015-Jan-26 14:32N 43°31' E 010°17'0 0.0
2015-Jan-26 13:32N 43°31' E 010°17'0 0.1
2015-Jan-26 12:32N 43°31' E 010°17'0 0.0
2015-Jan-26 11:32N 43°31' E 010°17'0 0.0
2015-Jan-26 10:32N 43°31' E 010°17'0 0.0
2015-Jan-26 09:32N 43°31' E 010°17'0 0.0
2015-Jan-26 08:32N 43°31' E 010°17'0 0.0
2015-Jan-26 07:32N 43°31' E 010°17'0 0.0
2015-Jan-26 06:32N 43°31' E 010°17'0 0.0
2015-Jan-26 05:32N 43°31' E 010°17'0 0.0
2015-Jan-26 04:29N 43°31' E 010°17'0 0.0
2015-Jan-26 03:32N 43°31' E 010°17'0 0.0
2015-Jan-26 02:32N 43°31' E 010°17'0 0.0
2015-Jan-26 01:32N 43°31' E 010°17'0 0.0
2015-Jan-26 00:32N 43°31' E 010°17'0 0.0
2015-Jan-25 23:32N 43°31' E 010°17'0 0.0
2015-Jan-25 22:32N 43°31' E 010°17'0 0.0
2015-Jan-25 21:32N 43°31' E 010°17'0 0.0
2015-Jan-25 20:29N 43°31' E 010°17'0 0.0
2015-Jan-25 19:29N 43°31' E 010°17'0 0.0
2015-Jan-25 18:32N 43°31' E 010°17'0 0.0
2015-Jan-25 17:32N 43°31' E 010°17'0 0.0
2015-Jan-25 16:32N 43°31' E 010°17'0 0.0
2015-Jan-25 15:32N 43°31' E 010°17'0 0.0
2015-Jan-25 14:32N 43°31' E 010°17'0 0.0
2015-Jan-25 13:32N 43°31' E 010°17'0 0.0
2015-Jan-25 12:32N 43°31' E 010°17'0 0.0
2015-Jan-25 11:32N 43°31' E 010°17'0 0.0
2015-Jan-25 10:32N 43°31' E 010°17'0 0.0
2015-Jan-25 09:32N 43°31' E 010°17'0 0.0
2015-Jan-25 08:32N 43°31' E 010°17'0 0.0
2015-Jan-25 07:29N 43°31' E 010°17'0 0.0
2015-Jan-25 06:32N 43°31' E 010°17'0 0.0
2015-Jan-25 05:32N 43°31' E 010°17'0 0.0
2015-Jan-25 04:32N 43°31' E 010°17'0 0.0
2015-Jan-25 03:32N 43°31' E 010°17'0 0.0
2015-Jan-25 02:32N 43°31' E 010°17'0 0.0
2015-Jan-25 01:32N 43°31' E 010°17'0 0.0
2015-Jan-25 00:32N 43°31' E 010°17'0 0.0
2015-Jan-24 23:32N 43°31' E 010°17'0 0.1
2015-Jan-24 22:32N 43°31' E 010°17'0 0.0
2015-Jan-24 21:32N 43°31' E 010°17'0 0.0
2015-Jan-24 20:32N 43°31' E 010°17'0 0.0
2015-Jan-24 19:32N 43°31' E 010°17'0 0.0
2015-Jan-24 18:29N 43°31' E 010°17'0 0.0
2015-Jan-24 17:32N 43°31' E 010°17'0 0.1
2015-Jan-24 16:32N 43°31' E 010°17'0 0.0
2015-Jan-24 15:32N 43°31' E 010°17'0 0.0
2015-Jan-24 14:32N 43°31' E 010°17'0 0.0
2015-Jan-24 13:32N 43°31' E 010°17'0 0.0
2015-Jan-24 12:32N 43°31' E 010°17'0 0.1
2015-Jan-24 11:32N 43°31' E 010°17'0 0.0
2015-Jan-24 10:32N 43°31' E 010°17'0 0.0
2015-Jan-24 09:32N 43°31' E 010°17'0 0.0
2015-Jan-24 08:32N 43°31' E 010°17'0 0.0
2015-Jan-24 07:32N 43°31' E 010°17'0 0.0
2015-Jan-24 06:32N 43°31' E 010°17'0 0.0
2015-Jan-24 05:32N 43°31' E 010°17'0 0.0
2015-Jan-24 04:32N 43°31' E 010°17'0 0.0
2015-Jan-24 03:32N 43°31' E 010°17'0 0.0
2015-Jan-24 02:32N 43°31' E 010°17'0 0.0
2015-Jan-24 01:32N 43°31' E 010°17'0 0.0
2015-Jan-24 00:32N 43°31' E 010°17'0 0.0
2015-Jan-23 23:32N 43°31' E 010°17'0 0.0
2015-Jan-23 22:32N 43°31' E 010°17'0 0.0
2015-Jan-23 21:32N 43°31' E 010°17'0 0.0
2015-Jan-23 20:32N 43°31' E 010°17'0 0.0
2015-Jan-23 19:32N 43°31' E 010°17'0 0.0
2015-Jan-23 18:32N 43°31' E 010°17'0 0.0
2015-Jan-23 17:32N 43°31' E 010°17'0 0.0
2015-Jan-23 16:32N 43°31' E 010°17'0 0.0
2015-Jan-23 15:32N 43°31' E 010°17'0 0.1
2015-Jan-23 14:32N 43°31' E 010°17'1 1.3
2015-Jan-23 13:34N 43°30' E 010°17'1313.4
2015-Jan-23 12:33N 43°17' E 010°10'1414.1
2015-Jan-23 11:33N 43°03' E 010°05'22513.2
2015-Jan-22 18:27N 39°19' E 009°44'1414.2
2015-Jan-22 17:28N 39°05' E 009°42'  
Track history (hours):
 
Tides and Currents Weather Stations Pressure Air Temp Water Temp Dewpoint Dewpoint Depression Visibility Wind Speed Wind Dir Waves Ship Positions

Iver Agile

Last reported at 2015-Jan-31 19:23 UTC. Time now 2015-Jan-31 22:40 UTC.
Position N 43°35' E 010°19'.

Length 110 m; draft 6.7 m.

Type: Tanker. MMSI: 247103700.

Date/timePositionNaut miles runAvg speedWind from/ knotsBaromVisibWave heightAir tempDewpointWater temp
2015-Jan-31 19:23N 43°35' E 010°19'0 0.0
2015-Jan-31 18:32N 43°35' E 010°19'0 0.0
2015-Jan-31 17:32N 43°35' E 010°19'0 0.0
2015-Jan-31 16:29N 43°35' E 010°19'0 0.0
2015-Jan-31 15:32N 43°35' E 010°19'0 0.0
2015-Jan-31 14:29N 43°35' E 010°19'0 0.0
2015-Jan-31 13:29N 43°35' E 010°19'0 0.0
2015-Jan-31 12:31N 43°35' E 010°19'0 0.0
2015-Jan-31 11:32N 43°35' E 010°19'0 0.0
2015-Jan-31 10:29N 43°35' E 010°19'0 0.0
2015-Jan-31 09:32N 43°35' E 010°19'0 0.0
2015-Jan-31 08:32N 43°35' E 010°19'0 0.0
2015-Jan-31 07:28N 43°35' E 010°19'0 0.0
2015-Jan-31 06:31N 43°35' E 010°19'0 0.0
2015-Jan-31 05:32N 43°35' E 010°19'0 0.0
2015-Jan-31 04:32N 43°35' E 010°19'0 0.0
2015-Jan-31 03:29N 43°35' E 010°19'0 0.0
2015-Jan-31 02:32N 43°35' E 010°19'0 0.0
2015-Jan-31 01:32N 43°35' E 010°19'0 0.0
2015-Jan-31 00:32N 43°35' E 010°19'0 0.0
2015-Jan-30 23:32N 43°35' E 010°19'0 0.0
2015-Jan-30 22:29N 43°35' E 010°19'0 0.0
2015-Jan-30 21:32N 43°35' E 010°19'0 0.0
2015-Jan-30 20:29N 43°35' E 010°19'0 0.0
2015-Jan-30 19:29N 43°35' E 010°19'0 0.0
2015-Jan-30 18:29N 43°35' E 010°19'0 0.0
2015-Jan-30 17:32N 43°35' E 010°19'0 0.0
2015-Jan-30 16:32N 43°35' E 010°19'0 0.0
2015-Jan-30 15:29N 43°35' E 010°19'0 0.0
2015-Jan-30 14:28N 43°35' E 010°19'0 0.0
2015-Jan-30 13:29N 43°35' E 010°19'0 0.0
2015-Jan-30 12:29N 43°35' E 010°19'0 0.0
2015-Jan-30 11:29N 43°35' E 010°19'0 0.0
2015-Jan-30 10:29N 43°35' E 010°19'0 0.3
2015-Jan-30 09:33N 43°35' E 010°19'7 7.2
2015-Jan-30 08:33N 43°29' E 010°14'20 2.9
2015-Jan-30 01:33N 43°14' E 009°54'5 4.9
2015-Jan-30 00:33N 43°17' E 009°60'5 4.6
2015-Jan-29 23:33N 43°21' E 010°04'4 4.4
2015-Jan-29 22:33N 43°23' E 010°09'4 4.3
2015-Jan-29 21:33N 43°26' E 010°13'4 3.8
2015-Jan-29 20:33N 43°29' E 010°16'2 1.5
2015-Jan-29 19:26N 43°31' E 010°17'0 0.0
2015-Jan-29 18:32N 43°31' E 010°17'0 0.0
2015-Jan-29 17:32N 43°31' E 010°17'0 0.0
2015-Jan-29 16:32N 43°31' E 010°17'0 0.0
2015-Jan-29 15:32N 43°31' E 010°17'0 0.0
2015-Jan-29 14:32N 43°31' E 010°17'0 0.0
2015-Jan-29 13:32N 43°31' E 010°17'0 0.0
2015-Jan-29 12:32N 43°31' E 010°17'0 0.0
2015-Jan-29 11:32N 43°31' E 010°17'0 0.1
2015-Jan-29 10:32N 43°31' E 010°17'0 0.0
2015-Jan-29 09:32N 43°31' E 010°17'0 0.0
2015-Jan-29 08:32N 43°31' E 010°17'0 0.0
2015-Jan-29 07:32N 43°31' E 010°17'0 0.1
2015-Jan-29 06:29N 43°31' E 010°17'0 0.0
2015-Jan-29 05:32N 43°31' E 010°17'0 0.1
2015-Jan-29 04:32N 43°31' E 010°17'0 0.0
2015-Jan-29 03:32N 43°31' E 010°17'0 0.0
2015-Jan-29 02:32N 43°31' E 010°17'0 0.1
2015-Jan-29 01:29N 43°31' E 010°17'0 0.0
2015-Jan-29 00:32N 43°31' E 010°17'0 0.0
2015-Jan-28 23:29N 43°31' E 010°17'0 0.0
2015-Jan-28 22:32N 43°31' E 010°17'0 0.0
2015-Jan-28 21:32N 43°31' E 010°17'0 0.0
2015-Jan-28 20:29N 43°31' E 010°17'0 0.0
2015-Jan-28 19:32N 43°31' E 010°17'0 0.0
2015-Jan-28 18:29N 43°31' E 010°17'0 0.1
2015-Jan-28 17:29N 43°31' E 010°17'0 0.1
2015-Jan-28 16:32N 43°31' E 010°17'0 0.0
2015-Jan-28 15:32N 43°31' E 010°17'0 0.0
2015-Jan-28 14:32N 43°31' E 010°17'0 0.0
2015-Jan-28 13:32N 43°31' E 010°17'0 0.0
2015-Jan-28 12:32N 43°31' E 010°17'0 0.0
2015-Jan-28 11:32N 43°31' E 010°17'0 0.0
2015-Jan-28 10:32N 43°31' E 010°17'0 0.0
2015-Jan-28 09:32N 43°31' E 010°17'0 0.0
2015-Jan-28 08:32N 43°31' E 010°17'0 0.0
2015-Jan-28 07:32N 43°31' E 010°17'0 0.0
2015-Jan-28 06:32N 43°31' E 010°17'0 0.0
2015-Jan-28 05:29N 43°31' E 010°17'0 0.0
2015-Jan-28 04:32N 43°31' E 010°17'0 0.0
2015-Jan-28 03:26N 43°31' E 010°17'0 0.0
2015-Jan-28 02:32N 43°31' E 010°17'0 0.0
2015-Jan-28 01:32N 43°31' E 010°17'0 0.0
2015-Jan-28 00:32N 43°31' E 010°17'0 0.0
2015-Jan-27 23:32N 43°31' E 010°17'0 0.0
2015-Jan-27 22:32N 43°31' E 010°17'0 0.0
2015-Jan-27 21:32N 43°31' E 010°17'0 0.0
2015-Jan-27 20:29N 43°31' E 010°17'0 0.0
2015-Jan-27 19:32N 43°31' E 010°17'0 0.0
2015-Jan-27 18:32N 43°31' E 010°17'0 0.0
2015-Jan-27 17:32N 43°31' E 010°17'0 0.0
2015-Jan-27 16:32N 43°31' E 010°17'0 0.1
2015-Jan-27 15:32N 43°31' E 010°17'0 0.0
2015-Jan-27 14:32N 43°31' E 010°17'0 0.0
2015-Jan-27 13:32N 43°31' E 010°17'0 0.0
2015-Jan-27 12:32N 43°31' E 010°17'0 0.0
2015-Jan-27 11:32N 43°31' E 010°17'0 0.1
2015-Jan-27 10:32N 43°31' E 010°17'0 0.1
2015-Jan-27 09:32N 43°31' E 010°17'0 0.0
2015-Jan-27 08:32N 43°31' E 010°17'0 0.0
2015-Jan-27 07:32N 43°31' E 010°17'0 0.0
2015-Jan-27 06:32N 43°31' E 010°17'0 0.0
2015-Jan-27 05:32N 43°31' E 010°17'0 0.0
2015-Jan-27 04:32N 43°31' E 010°17'0 0.0
2015-Jan-27 03:32N 43°31' E 010°17'0 0.0
2015-Jan-27 02:32N 43°31' E 010°17'0 0.0
2015-Jan-27 01:32N 43°31' E 010°17'0 0.0
2015-Jan-27 00:32N 43°31' E 010°17'0 0.0
2015-Jan-26 23:32N 43°31' E 010°17'0 0.0
2015-Jan-26 22:32N 43°31' E 010°17'0 0.0
2015-Jan-26 21:32N 43°31' E 010°17'0 0.0
2015-Jan-26 20:32N 43°31' E 010°17'0 0.0
2015-Jan-26 19:32N 43°31' E 010°17'0 0.0
2015-Jan-26 18:32N 43°31' E 010°17'0 0.0
2015-Jan-26 17:32N 43°31' E 010°17'0 0.0
2015-Jan-26 16:32N 43°31' E 010°17'0 0.0
2015-Jan-26 15:32N 43°31' E 010°17'0 0.1
2015-Jan-26 14:32N 43°31' E 010°17'0 0.0
2015-Jan-26 13:32N 43°31' E 010°17'0 0.1
2015-Jan-26 12:32N 43°31' E 010°17'0 0.0
2015-Jan-26 11:32N 43°31' E 010°17'0 0.0
2015-Jan-26 10:32N 43°31' E 010°17'0 0.0
2015-Jan-26 09:32N 43°31' E 010°17'0 0.0
2015-Jan-26 08:32N 43°31' E 010°17'0 0.0
2015-Jan-26 07:32N 43°31' E 010°17'0 0.0
2015-Jan-26 06:32N 43°31' E 010°17'0 0.0
2015-Jan-26 05:32N 43°31' E 010°17'0 0.0
2015-Jan-26 04:29N 43°31' E 010°17'0 0.0
2015-Jan-26 03:32N 43°31' E 010°17'0 0.0
2015-Jan-26 02:32N 43°31' E 010°17'0 0.0
2015-Jan-26 01:32N 43°31' E 010°17'0 0.0
2015-Jan-26 00:32N 43°31' E 010°17'0 0.0
2015-Jan-25 23:32N 43°31' E 010°17'0 0.0
2015-Jan-25 22:32N 43°31' E 010°17'0 0.0
2015-Jan-25 21:32N 43°31' E 010°17'0 0.0
2015-Jan-25 20:29N 43°31' E 010°17'0 0.0
2015-Jan-25 19:29N 43°31' E 010°17'0 0.0
2015-Jan-25 18:32N 43°31' E 010°17'0 0.0
2015-Jan-25 17:32N 43°31' E 010°17'0 0.0
2015-Jan-25 16:32N 43°31' E 010°17'0 0.0
2015-Jan-25 15:32N 43°31' E 010°17'0 0.0
2015-Jan-25 14:32N 43°31' E 010°17'0 0.0
2015-Jan-25 13:32N 43°31' E 010°17'0 0.0
2015-Jan-25 12:32N 43°31' E 010°17'0 0.0
2015-Jan-25 11:32N 43°31' E 010°17'0 0.0
2015-Jan-25 10:32N 43°31' E 010°17'0 0.0
2015-Jan-25 09:32N 43°31' E 010°17'0 0.0
2015-Jan-25 08:32N 43°31' E 010°17'0 0.0
2015-Jan-25 07:29N 43°31' E 010°17'0 0.0
2015-Jan-25 06:32N 43°31' E 010°17'0 0.0
2015-Jan-25 05:32N 43°31' E 010°17'0 0.0
2015-Jan-25 04:32N 43°31' E 010°17'0 0.0
2015-Jan-25 03:32N 43°31' E 010°17'0 0.0
2015-Jan-25 02:32N 43°31' E 010°17'0 0.0
2015-Jan-25 01:32N 43°31' E 010°17'0 0.0
2015-Jan-25 00:32N 43°31' E 010°17'0 0.0
2015-Jan-24 23:32N 43°31' E 010°17'0 0.1
2015-Jan-24 22:32N 43°31' E 010°17'0 0.0
2015-Jan-24 21:32N 43°31' E 010°17'0 0.0
2015-Jan-24 20:32N 43°31' E 010°17'0 0.0
2015-Jan-24 19:32N 43°31' E 010°17'0 0.0
2015-Jan-24 18:29N 43°31' E 010°17'0 0.0
2015-Jan-24 17:32N 43°31' E 010°17'0 0.1
2015-Jan-24 16:32N 43°31' E 010°17'0 0.0
2015-Jan-24 15:32N 43°31' E 010°17'0 0.0
2015-Jan-24 14:32N 43°31' E 010°17'0 0.0
2015-Jan-24 13:32N 43°31' E 010°17'0 0.0
2015-Jan-24 12:32N 43°31' E 010°17'0 0.1
2015-Jan-24 11:32N 43°31' E 010°17'0 0.0
2015-Jan-24 10:32N 43°31' E 010°17'0 0.0
2015-Jan-24 09:32N 43°31' E 010°17'0 0.0
2015-Jan-24 08:32N 43°31' E 010°17'0 0.0
2015-Jan-24 07:32N 43°31' E 010°17'0 0.0
2015-Jan-24 06:32N 43°31' E 010°17'0 0.0
2015-Jan-24 05:32N 43°31' E 010°17'0 0.0
2015-Jan-24 04:32N 43°31' E 010°17'0 0.0
2015-Jan-24 03:32N 43°31' E 010°17'0 0.0
2015-Jan-24 02:32N 43°31' E 010°17'0 0.0
2015-Jan-24 01:32N 43°31' E 010°17'0 0.0
2015-Jan-24 00:32N 43°31' E 010°17'0 0.0
2015-Jan-23 23:32N 43°31' E 010°17'0 0.0
2015-Jan-23 22:32N 43°31' E 010°17'0 0.0
2015-Jan-23 21:32N 43°31' E 010°17'0 0.0
2015-Jan-23 20:32N 43°31' E 010°17'0 0.0
2015-Jan-23 19:32N 43°31' E 010°17'0 0.0
2015-Jan-23 18:32N 43°31' E 010°17'0 0.0
2015-Jan-23 17:32N 43°31' E 010°17'0 0.0
2015-Jan-23 16:32N 43°31' E 010°17'0 0.0
2015-Jan-23 15:32N 43°31' E 010°17'0 0.1
2015-Jan-23 14:32N 43°31' E 010°17'1 1.3
2015-Jan-23 13:34N 43°30' E 010°17'1313.4
2015-Jan-23 12:33N 43°17' E 010°10'1414.1
2015-Jan-23 11:33N 43°03' E 010°05'22513.2
2015-Jan-22 18:27N 39°19' E 009°44'1414.2
2015-Jan-22 17:28N 39°05' E 009°42'  

Dump ship's entire track history